createdAt,value
2016-11-16T12:33:25.235Z,440
2016-11-16T12:33:50.762Z,440
2016-11-16T12:34:16.303Z,410
2016-11-16T12:34:41.952Z,365
2016-11-16T12:35:07.597Z,350
2016-11-16T12:35:33.173Z,345
2016-11-16T12:35:58.726Z,230
2016-11-16T12:36:24.356Z,135
2016-11-16T12:36:49.878Z,130
2016-11-16T12:37:15.449Z,170
2016-11-16T12:37:40.970Z,185
2016-11-16T12:38:06.536Z,200
2016-11-16T12:38:32.186Z,190
2016-11-16T12:38:57.722Z,370
2016-11-16T12:39:23.418Z,395
2016-11-16T12:39:49.064Z,160
2016-11-16T12:40:14.586Z,150
2016-11-16T12:40:40.106Z,140
2016-11-16T12:41:05.869Z,120
2016-11-16T12:41:31.434Z,125
2016-11-16T12:41:56.981Z,110
2016-11-16T12:42:22.504Z,275
2016-11-16T12:42:48.201Z,110
2016-11-16T12:43:13.746Z,265
2016-11-16T12:43:39.323Z,295
2016-11-16T12:44:04.993Z,355
2016-11-16T12:44:30.595Z,250
2016-11-16T12:44:56.148Z,280
2016-11-16T12:45:21.760Z,130
2016-11-16T12:45:47.405Z,190
2016-11-16T12:46:12.952Z,225
2016-11-16T12:46:38.500Z,155
2016-11-16T12:47:04.070Z,135
2016-11-16T12:47:29.645Z,155
2016-11-16T12:47:55.191Z,155
2016-11-16T12:48:20.774Z,115
2016-11-16T12:48:46.301Z,115
2016-11-16T12:49:11.875Z,100
2016-11-16T12:49:37.560Z,125
2016-11-16T12:50:03.121Z,145
2016-11-16T12:50:28.684Z,220
2016-11-16T12:50:54.251Z,205
2016-11-16T12:51:19.797Z,220
2016-11-16T12:51:45.342Z,135
2016-11-16T12:52:10.894Z,120
2016-11-16T12:52:36.531Z,110
2016-11-16T12:53:02.063Z,115
2016-11-16T12:53:27.639Z,120
2016-11-16T12:53:53.178Z,125
2016-11-16T12:54:18.710Z,130
2016-11-16T12:54:44.241Z,120
2016-11-16T12:55:09.791Z,130
2016-11-16T12:55:35.353Z,130
2016-11-16T12:56:00.927Z,130
2016-11-16T12:56:26.515Z,120
2016-11-16T12:56:52.065Z,110
2016-11-16T12:57:17.592Z,120
2016-11-16T12:57:43.209Z,115
2016-11-16T12:58:08.750Z,105
2016-11-16T12:58:34.301Z,100
2016-11-16T12:58:59.861Z,90
2016-11-16T12:59:25.373Z,90
2016-11-16T12:59:51.035Z,90
2016-11-16T13:00:16.585Z,85
2016-11-16T13:00:42.171Z,80
2016-11-16T13:01:07.720Z,70
2016-11-16T13:01:33.282Z,65
2016-11-16T13:01:58.838Z,60
2016-11-16T13:02:24.436Z,55
2016-11-16T13:02:49.982Z,55
2016-11-16T13:03:15.606Z,55
2016-11-16T13:03:41.208Z,60
2016-11-16T13:04:06.765Z,65
2016-11-16T13:04:32.293Z,65
2016-11-16T13:04:57.875Z,65
2016-11-16T13:05:23.425Z,75
2016-11-16T13:05:48.963Z,85
2016-11-16T13:06:14.499Z,100
2016-11-16T13:06:40.029Z,100
2016-11-16T13:07:05.560Z,95
2016-11-16T13:07:31.113Z,100
2016-11-16T13:08:39.416Z,120
2016-11-16T13:09:05.007Z,115
2016-11-16T13:09:30.618Z,115
2016-11-16T13:09:56.147Z,100
2016-11-16T13:10:21.698Z,95
2016-11-16T13:10:47.246Z,90
2016-11-16T13:11:12.850Z,85
2016-11-16T13:11:38.436Z,85
2016-11-16T13:12:03.980Z,80
2016-11-16T13:14:53.996Z,85
2016-11-16T13:15:19.570Z,85
2016-11-16T13:16:27.855Z,90
2016-11-16T13:17:56.620Z,80
2016-11-16T13:18:22.207Z,80
2016-11-16T13:18:47.757Z,75
2016-11-16T13:19:13.307Z,75
2016-11-16T13:19:38.868Z,75
2016-11-16T13:20:04.463Z,75
2016-11-16T13:20:30.015Z,70
2016-11-16T13:20:55.570Z,70
2016-11-16T13:21:21.127Z,65
2016-11-16T13:21:46.716Z,70
2016-11-16T13:22:12.383Z,65
2016-11-16T13:22:37.925Z,65
2016-11-16T13:23:03.467Z,70
2016-11-16T13:23:29.209Z,70
2016-11-16T13:23:54.783Z,70
2016-11-16T13:24:20.335Z,70
2016-11-16T13:24:45.893Z,65
2016-11-16T13:25:11.442Z,65
2016-11-16T13:25:36.984Z,65
2016-11-16T13:26:02.520Z,65
2016-11-16T13:26:28.069Z,65
2016-11-16T13:26:53.705Z,65
2016-11-16T13:27:19.256Z,65
2016-11-16T13:27:44.809Z,60
2016-11-16T13:28:58.213Z,60
2016-11-16T13:29:23.925Z,60
2016-11-16T13:29:49.527Z,60
2016-11-16T13:30:15.068Z,55
2016-11-16T13:30:40.721Z,55
2016-11-16T13:31:06.427Z,50
2016-11-16T13:31:31.895Z,45
2016-11-16T13:31:57.449Z,45
2016-11-16T13:32:23.095Z,45
2016-11-16T13:32:48.639Z,45
2016-11-16T13:33:14.166Z,45
2016-11-16T13:33:39.999Z,45
2016-11-16T13:34:05.551Z,50
2016-11-16T13:34:31.116Z,50
2016-11-16T13:34:56.738Z,45
2016-11-16T13:35:22.360Z,50
2016-11-16T13:35:47.915Z,50
2016-11-16T13:36:13.453Z,50
2016-11-16T13:36:39.034Z,45
2016-11-16T13:37:04.579Z,45
2016-11-16T13:37:30.153Z,50
2016-11-16T13:37:55.689Z,45
2016-11-16T13:38:21.258Z,45
2016-11-16T13:38:46.956Z,45
2016-11-16T13:39:12.505Z,45
2016-11-16T13:39:38.032Z,40
2016-11-16T13:40:03.577Z,45
2016-11-16T13:40:29.148Z,45
2016-11-16T13:40:54.678Z,50
2016-11-16T13:41:20.227Z,50
2016-11-16T13:41:45.782Z,55
2016-11-16T13:42:11.324Z,60
2016-11-16T13:42:36.841Z,60
2016-11-16T13:43:02.399Z,50
2016-11-16T13:43:28.016Z,55
2016-11-16T13:43:53.601Z,55
2016-11-16T13:44:19.141Z,50
2016-11-16T13:44:44.705Z,45
2016-11-16T13:45:10.399Z,50
2016-11-16T13:46:28.956Z,60
2016-11-16T13:46:54.562Z,60
2016-11-16T13:47:20.180Z,65
2016-11-16T13:47:45.749Z,65
2016-11-16T13:48:11.313Z,75
2016-11-16T13:48:36.867Z,95
2016-11-16T13:49:02.420Z,130
2016-11-16T13:49:28.060Z,130
2016-11-16T13:49:53.616Z,110
2016-11-16T13:50:19.172Z,95
2016-11-16T13:50:44.693Z,80
2016-11-16T13:51:10.261Z,70
2016-11-16T13:51:35.812Z,75
2016-11-16T13:52:01.356Z,70
2016-11-16T13:52:29.883Z,60
2016-11-16T13:52:55.455Z,55
2016-11-16T13:53:21.035Z,60
2016-11-16T13:53:46.653Z,80
2016-11-16T13:54:12.438Z,90
2016-11-16T13:54:38.855Z,90
2016-11-16T13:55:04.436Z,95
2016-11-16T13:55:30.016Z,100
2016-11-16T13:55:55.723Z,100
2016-11-16T13:56:21.280Z,95
2016-11-16T13:56:46.846Z,90
2016-11-16T13:57:12.427Z,85
2016-11-16T13:57:38.014Z,85
2016-11-16T13:58:03.614Z,85
2016-11-16T13:58:29.163Z,95
2016-11-16T13:58:54.755Z,115
2016-11-16T13:59:20.413Z,120
2016-11-16T13:59:45.984Z,105
2016-11-16T14:00:11.635Z,95
2016-11-16T14:00:37.208Z,95
2016-11-16T14:01:02.778Z,85
2016-11-16T14:01:28.355Z,80
2016-11-16T14:01:53.980Z,70
2016-11-16T14:02:19.570Z,65
2016-11-16T14:02:45.125Z,70
2016-11-16T14:03:10.697Z,65
2016-11-16T14:03:36.295Z,65
2016-11-16T14:04:01.871Z,70
2016-11-16T14:04:27.409Z,70
2016-11-16T14:05:35.943Z,75
2016-11-16T14:06:04.686Z,75
2016-11-16T14:08:16.848Z,65
2016-11-16T14:08:42.500Z,65
2016-11-16T14:09:08.056Z,60
2016-11-16T14:09:33.619Z,60
2016-11-16T14:09:59.161Z,60
2016-11-16T14:10:24.819Z,65
2016-11-16T14:10:50.361Z,70
2016-11-16T14:11:16.016Z,70
2016-11-16T14:11:41.555Z,65
2016-11-16T14:12:07.125Z,65
2016-11-16T14:12:32.726Z,65
2016-11-16T14:14:01.591Z,70
2016-11-16T14:14:27.235Z,70
2016-11-16T14:14:52.805Z,65
2016-11-16T14:15:18.373Z,65
2016-11-16T14:15:45.589Z,65
2016-11-16T14:16:14.282Z,60
2016-11-16T14:16:39.868Z,60
2016-11-16T14:17:05.443Z,55
2016-11-16T14:17:31.012Z,55
2016-11-16T14:17:56.587Z,55
2016-11-16T14:18:22.132Z,55
2016-11-16T14:18:47.684Z,60
2016-11-16T14:19:13.248Z,55
2016-11-16T14:19:38.806Z,55
2016-11-16T14:20:04.428Z,55
2016-11-16T14:20:29.986Z,55
2016-11-16T14:20:55.543Z,55
2016-11-16T14:21:21.120Z,55
2016-11-16T14:21:46.670Z,55
2016-11-16T14:22:12.255Z,50
2016-11-16T14:22:37.842Z,50
2016-11-16T14:23:03.417Z,50
2016-11-16T14:23:29.009Z,45
2016-11-16T14:23:54.545Z,45
2016-11-16T14:24:20.129Z,45
2016-11-16T14:24:45.777Z,45
2016-11-16T14:25:11.334Z,50
2016-11-16T14:25:36.913Z,50
2016-11-16T14:26:02.495Z,50
2016-11-16T14:26:28.089Z,50
2016-11-16T14:26:53.675Z,45
2016-11-16T14:27:19.224Z,45
2016-11-16T14:27:44.769Z,45
2016-11-16T14:28:10.335Z,45
2016-11-16T14:28:35.905Z,45
2016-11-16T14:29:01.444Z,40
2016-11-16T14:29:27.030Z,40
2016-11-16T14:29:52.609Z,40
2016-11-16T14:30:18.261Z,35
2016-11-16T14:30:43.829Z,40
2016-11-16T14:31:09.380Z,35
2016-11-16T14:31:34.925Z,40
2016-11-16T14:32:00.516Z,40
2016-11-16T14:32:26.056Z,40
2016-11-16T14:32:51.620Z,40
2016-11-16T14:33:17.184Z,40
2016-11-16T14:33:42.821Z,40
2016-11-16T14:34:08.367Z,40
2016-11-16T14:34:33.934Z,40
2016-11-16T14:34:59.564Z,35
2016-11-16T14:35:25.119Z,35
2016-11-16T14:35:50.687Z,35
2016-11-16T14:36:16.315Z,35
2016-11-16T14:36:41.869Z,35
2016-11-16T14:37:07.433Z,35
2016-11-16T14:37:33.108Z,35
2016-11-16T14:37:58.657Z,35
2016-11-16T14:38:24.231Z,35
2016-11-16T14:38:49.943Z,35
2016-11-16T14:39:15.521Z,35
2016-11-16T14:39:41.070Z,35
2016-11-16T14:40:06.655Z,35
2016-11-16T14:40:32.263Z,30
2016-11-16T14:40:57.831Z,30
2016-11-16T14:41:23.372Z,30
2016-11-16T14:41:48.962Z,30
2016-11-16T14:42:14.524Z,30
2016-11-16T14:42:40.090Z,30
2016-11-16T14:43:05.692Z,30
2016-11-16T14:43:31.446Z,30
2016-11-16T14:43:56.994Z,35
2016-11-16T14:44:22.527Z,35
2016-11-16T14:44:48.167Z,35
2016-11-16T14:45:13.730Z,35
2016-11-16T14:45:39.305Z,35
2016-11-16T14:46:04.878Z,40
2016-11-16T14:46:30.450Z,40
2016-11-16T14:46:56.045Z,40
2016-11-16T14:47:21.596Z,40
2016-11-16T14:47:47.167Z,35
2016-11-16T14:48:12.752Z,35
2016-11-16T14:48:38.293Z,35
2016-11-16T14:49:03.866Z,35
2016-11-16T14:49:29.490Z,35
2016-11-16T14:49:55.056Z,35
2016-11-16T14:50:22.595Z,35
2016-11-16T14:51:53.349Z,35
2016-11-16T14:52:18.921Z,35
2016-11-16T14:52:44.517Z,35
2016-11-16T14:53:10.090Z,35
2016-11-16T14:53:35.672Z,35
2016-11-16T14:54:01.250Z,35
2016-11-16T14:54:26.850Z,30
2016-11-16T14:54:52.444Z,30
2016-11-16T14:55:18.021Z,30
2016-11-16T14:55:43.627Z,30
2016-11-16T14:56:09.211Z,30
2016-11-16T14:56:34.748Z,30
2016-11-16T14:57:00.335Z,25
2016-11-16T14:57:25.904Z,25
2016-11-16T14:57:51.467Z,25
2016-11-16T14:58:17.013Z,25
2016-11-16T14:58:42.579Z,25
2016-11-16T14:59:08.164Z,25
2016-11-16T14:59:33.870Z,25
2016-11-16T15:00:52.515Z,25
2016-11-16T15:01:18.110Z,20
2016-11-16T15:01:43.695Z,20
2016-11-16T15:02:09.231Z,20
2016-11-16T15:02:34.803Z,20
2016-11-16T15:03:00.365Z,20
2016-11-16T15:03:25.938Z,20
2016-11-16T15:03:51.501Z,20
2016-11-16T15:04:17.063Z,15
2016-11-16T15:04:42.618Z,15
2016-11-16T15:05:08.198Z,15
2016-11-16T15:05:33.841Z,15
2016-11-16T15:05:59.387Z,15
2016-11-16T15:06:24.950Z,15
2016-11-16T15:06:50.588Z,15
2016-11-16T15:07:16.203Z,15
2016-11-16T15:07:44.487Z,10
2016-11-16T15:08:53.830Z,10
2016-11-16T15:09:19.393Z,10
2016-11-16T15:09:44.970Z,10
2016-11-16T15:10:10.537Z,10
2016-11-16T15:10:36.125Z,10
2016-11-16T15:11:01.693Z,5
2016-11-16T15:11:27.260Z,5
2016-11-16T15:11:52.825Z,5
2016-11-16T15:12:18.379Z,5
2016-11-16T15:12:43.938Z,5
2016-11-16T15:13:09.485Z,5
2016-11-16T15:14:28.029Z,5
2016-11-16T15:14:53.592Z,5
2016-11-16T15:15:19.148Z,5
2016-11-16T15:15:44.709Z,5
2016-11-16T15:16:10.285Z,5
2016-11-16T15:16:35.856Z,5
2016-11-16T15:17:01.417Z,5
2016-11-16T15:17:26.985Z,5
2016-11-16T15:17:52.544Z,5
2016-11-16T15:18:18.134Z,5
2016-11-16T15:18:43.688Z,5
2016-11-16T15:19:09.283Z,5
2016-11-16T15:19:34.814Z,5
2016-11-16T15:20:00.368Z,5
2016-11-16T15:20:25.986Z,5
2016-11-16T15:20:51.521Z,5
2016-11-16T15:21:17.127Z,5
2016-11-16T15:21:42.697Z,5
2016-11-16T15:22:08.252Z,5
2016-11-16T15:22:33.919Z,5
2016-11-16T15:22:59.466Z,5
2016-11-16T15:24:27.047Z,0
2016-11-16T15:24:52.607Z,0
2016-11-16T15:25:18.176Z,0
2016-11-16T15:25:43.738Z,0
2016-11-16T15:26:09.285Z,0
2016-11-16T15:26:34.853Z,0
2016-11-16T15:27:00.388Z,0
2016-11-16T15:27:26.064Z,0
2016-11-16T15:27:51.594Z,0
2016-11-16T15:28:17.149Z,0
2016-11-16T15:28:42.698Z,0
2016-11-16T15:29:08.265Z,0
2016-11-16T15:29:33.817Z,0
2016-11-16T15:29:59.389Z,0
2016-11-16T15:30:24.916Z,0
2016-11-16T15:30:50.488Z,0
2016-11-16T15:31:16.095Z,0
